Terminal Aerodrome Forecast
Issued by NWS

Current Version | Previous Version | Text Only | Print | Product List | Glossary On
Versions: 1 2 3 4 5 6 7 8 9 10 11 12 13 14 15
000
FTUS41 KAKQ 300520
TAFPHF
TAF
KPHF 300520Z 3006/3106 20011KT P6SM BKN150
     FM301200 23014G22KT P6SM -RA BKN035
     FM301600 24015G22KT P6SM SCT060
     FM302300 28007KT P6SM SCT150=

USA.gov is the U.S. government's official web portal to all federal, state and local government web resources and services.